sensor_id;sensor_type;location;lat;lon;timestamp;P1;durP1;ratioP1;P2;durP2;ratioP2
72785;SDS011;60902;53.876;10.674;2023-04-03T00:00:08;6.38;;;2.20;;
72785;SDS011;60902;53.876;10.674;2023-04-03T00:00:20;7.22;;;2.20;;
72785;SDS011;60902;53.876;10.674;2023-04-03T00:00:31;7.60;;;2.20;;
72785;SDS011;60902;53.876;10.674;2023-04-03T00:00:44;7.78;;;2.30;;
72785;SDS011;60902;53.876;10.674;2023-04-03T00:00:56;7.15;;;2.33;;
72785;SDS011;60902;53.876;10.674;2023-04-03T00:01:07;7.00;;;2.25;;
72785;SDS011;60902;53.876;10.674;2023-04-03T00:01:18;6.85;;;2.10;;
72785;SDS011;60902;53.876;10.674;2023-04-03T00:01:32;7.30;;;2.13;;
72785;SDS011;60902;53.876;10.674;2023-04-03T00:01:43;6.85;;;2.20;;
72785;SDS011;60902;53.876;10.674;2023-04-03T00:01:54;6.93;;;2.30;;
72785;SDS011;60902;53.876;10.674;2023-04-03T00:02:05;6.72;;;2.20;;
72785;SDS011;60902;53.876;10.674;2023-04-03T00:02:16;6.35;;;2.00;;
72785;SDS011;60902;53.876;10.674;2023-04-03T00:02:27;6.43;;;2.08;;
72785;SDS011;60902;53.876;10.674;2023-04-03T00:02:38;7.40;;;2.10;;
72785;SDS011;60902;53.876;10.674;2023-04-03T00:02:52;7.07;;;2.17;;
72785;SDS011;60902;53.876;10.674;2023-04-03T00:03:02;7.25;;;2.30;;
72785;SDS011;60902;53.876;10.674;2023-04-03T00:03:15;7.00;;;2.22;;
72785;SDS011;60902;53.876;10.674;2023-04-03T00:03:26;7.15;;;2.20;;
72785;SDS011;60902;53.876;10.674;2023-04-03T00:03:37;7.00;;;2.08;;
72785;SDS011;60902;53.876;10.674;2023-04-03T00:03:48;6.95;;;2.10;;
72785;SDS011;60902;53.876;10.674;2023-04-03T00:04:01;6.45;;;2.13;;
72785;SDS011;60902;53.876;10.674;2023-04-03T00:04:12;7.47;;;2.38;;
72785;SDS011;60902;53.876;10.674;2023-04-03T00:04:23;6.90;;;2.38;;
72785;SDS011;60902;53.876;10.674;2023-04-03T00:04:34;6.88;;;2.22;;
72785;SDS011;60902;53.876;10.674;2023-04-03T00:04:45;5.90;;;2.03;;
72785;SDS011;60902;53.876;10.674;2023-04-03T00:04:56;6.40;;;2.00;;
72785;SDS011;60902;53.876;10.674;2023-04-03T00:05:08;6.28;;;1.90;;
72785;SDS011;60902;53.876;10.674;2023-04-03T00:05:19;6.70;;;1.98;;
72785;SDS011;60902;53.876;10.674;2023-04-03T00:05:30;6.68;;;2.05;;
72785;SDS011;60902;53.876;10.674;2023-04-03T00:05:42;7.43;;;2.13;;
72785;SDS011;60902;53.876;10.674;2023-04-03T00:05:53;7.97;;;1.98;;
72785;SDS011;60902;53.876;10.674;2023-04-03T00:06:05;8.05;;;2.08;;
72785;SDS011;60902;53.876;10.674;2023-04-03T00:06:16;8.05;;;2.22;;
72785;SDS011;60902;53.876;10.674;2023-04-03T00:06:27;7.25;;;2.30;;
72785;SDS011;60902;53.876;10.674;2023-04-03T00:06:40;6.38;;;2.10;;
72785;SDS011;60902;53.876;10.674;2023-04-03T00:06:52;6.60;;;2.17;;
72785;SDS011;60902;53.876;10.674;2023-04-03T00:07:03;7.53;;;2.20;;
72785;SDS011;60902;53.876;10.674;2023-04-03T00:07:15;8.23;;;2.13;;
72785;SDS011;60902;53.876;10.674;2023-04-03T00:07:27;7.75;;;2.10;;
72785;SDS011;60902;53.876;10.674;2023-04-03T00:07:38;7.20;;;2.17;;
72785;SDS011;60902;53.876;10.674;2023-04-03T00:07:49;7.28;;;2.13;;
72785;SDS011;60902;53.876;10.674;2023-04-03T00:08:00;7.28;;;2.15;;
72785;SDS011;60902;53.876;10.674;2023-04-03T00:08:14;8.15;;;2.03;;
72785;SDS011;60902;53.876;10.674;2023-04-03T00:08:25;7.45;;;2.10;;
72785;SDS011;60902;53.876;10.674;2023-04-03T00:08:36;6.35;;;2.03;;
72785;SDS011;60902;53.876;10.674;2023-04-03T00:08:48;6.78;;;2.00;;
72785;SDS011;60902;53.876;10.674;2023-04-03T00:09:00;7.13;;;2.05;;
72785;SDS011;60902;53.876;10.674;2023-04-03T00:09:12;7.03;;;2.08;;
72785;SDS011;60902;53.876;10.674;2023-04-03T00:09:23;7.53;;;1.98;;
72785;SDS011;60902;53.876;10.674;2023-04-03T00:09:34;7.18;;;2.20;;
72785;SDS011;60902;53.876;10.674;2023-04-03T00:09:46;6.88;;;2.20;;
72785;SDS011;60902;53.876;10.674;2023-04-03T00:09:57;5.90;;;2.00;;
72785;SDS011;60902;53.876;10.674;2023-04-03T00:10:08;6.90;;;2.00;;
72785;SDS011;60902;53.876;10.674;2023-04-03T00:10:20;7.20;;;2.15;;
72785;SDS011;60902;53.876;10.674;2023-04-03T00:10:31;7.15;;;2.05;;
72785;SDS011;60902;53.876;10.674;2023-04-03T00:10:42;7.38;;;1.90;;
72785;SDS011;60902;53.876;10.674;2023-04-03T00:10:53;7.00;;;1.90;;
72785;SDS011;60902;53.876;10.674;2023-04-03T00:11:06;7.28;;;2.00;;
72785;SDS011;60902;53.876;10.674;2023-04-03T00:11:18;7.28;;;1.95;;
72785;SDS011;60902;53.876;10.674;2023-04-03T00:11:30;7.32;;;2.30;;
72785;SDS011;60902;53.876;10.674;2023-04-03T00:11:41;6.53;;;2.30;;
72785;SDS011;60902;53.876;10.674;2023-04-03T00:11:52;5.95;;;2.28;;
72785;SDS011;60902;53.876;10.674;2023-04-03T00:12:03;6.70;;;2.03;;
72785;SDS011;60902;53.876;10.674;2023-04-03T00:12:15;6.50;;;2.20;;
72785;SDS011;60902;53.876;10.674;2023-04-03T00:12:27;6.85;;;2.00;;
72785;SDS011;60902;53.876;10.674;2023-04-03T00:12:38;6.95;;;2.20;;
72785;SDS011;60902;53.876;10.674;2023-04-03T00:12:49;7.25;;;2.13;;
72785;SDS011;60902;53.876;10.674;2023-04-03T00:13:01;7.93;;;2.40;;
72785;SDS011;60902;53.876;10.674;2023-04-03T00:13:13;7.38;;;2.20;;
72785;SDS011;60902;53.876;10.674;2023-04-03T00:13:28;7.38;;;2.10;;
72785;SDS011;60902;53.876;10.674;2023-04-03T00:13:41;7.78;;;2.15;;
72785;SDS011;60902;53.876;10.674;2023-04-03T00:13:52;7.97;;;2.00;;
72785;SDS011;60902;53.876;10.674;2023-04-03T00:14:03;7.35;;;1.95;;
72785;SDS011;60902;53.876;10.674;2023-04-03T00:14:14;6.60;;;1.98;;
72785;SDS011;60902;53.876;10.674;2023-04-03T00:14:25;6.25;;;2.00;;
72785;SDS011;60902;53.876;10.674;2023-04-03T00:14:37;6.25;;;1.92;;
72785;SDS011;60902;53.876;10.674;2023-04-03T00:14:48;6.82;;;2.00;;
72785;SDS011;60902;53.876;10.674;2023-04-03T00:14:59;6.93;;;2.00;;
72785;SDS011;60902;53.876;10.674;2023-04-03T00:15:12;6.95;;;2.10;;
72785;SDS011;60902;53.876;10.674;2023-04-03T00:15:23;6.57;;;1.98;;
72785;SDS011;60902;53.876;10.674;2023-04-03T00:15:34;6.70;;;2.00;;
72785;SDS011;60902;53.876;10.674;2023-04-03T00:15:46;6.28;;;1.77;;
72785;SDS011;60902;53.876;10.674;2023-04-03T00:15:57;6.55;;;2.00;;
72785;SDS011;60902;53.876;10.674;2023-04-03T00:16:10;6.28;;;1.90;;
72785;SDS011;60902;53.876;10.674;2023-04-03T00:16:23;6.03;;;2.00;;
72785;SDS011;60902;53.876;10.674;2023-04-03T00:16:35;6.90;;;2.00;;
72785;SDS011;60902;53.876;10.674;2023-04-03T00:16:46;7.40;;;2.17;;
72785;SDS011;60902;53.876;10.674;2023-04-03T00:16:57;7.43;;;2.00;;
72785;SDS011;60902;53.876;10.674;2023-04-03T00:17:08;6.25;;;1.80;;
72785;SDS011;60902;53.876;10.674;2023-04-03T00:17:19;6.78;;;1.90;;
72785;SDS011;60902;53.876;10.674;2023-04-03T00:17:30;6.63;;;2.10;;
72785;SDS011;60902;53.876;10.674;2023-04-03T00:17:41;6.50;;;2.28;;
72785;SDS011;60902;53.876;10.674;2023-04-03T00:17:51;6.80;;;2.28;;
72785;SDS011;60902;53.876;10.674;2023-04-03T00:18:04;6.82;;;2.10;;
72785;SDS011;60902;53.876;10.674;2023-04-03T00:18:15;6.47;;;1.88;;
72785;SDS011;60902;53.876;10.674;2023-04-03T00:18:26;5.75;;;1.70;;
72785;SDS011;60902;53.876;10.674;2023-04-03T00:18:38;5.05;;;1.70;;
72785;SDS011;60902;53.876;10.674;2023-04-03T00:18:49;5.18;;;1.70;;
72785;SDS011;60902;53.876;10.674;2023-04-03T00:19:00;5.67;;;1.90;;
72785;SDS011;60902;53.876;10.674;2023-04-03T00:19:12;5.72;;;2.03;;
72785;SDS011;60902;53.876;10.674;2023-04-03T00:19:23;6.30;;;2.13;;
72785;SDS011;60902;53.876;10.674;2023-04-03T00:19:35;8.07;;;2.15;;
72785;SDS011;60902;53.876;10.674;2023-04-03T00:19:47;7.97;;;2.00;;
72785;SDS011;60902;53.876;10.674;2023-04-03T00:19:57;6.90;;;1.95;;
72785;SDS011;60902;53.876;10.674;2023-04-03T00:20:09;6.53;;;1.98;;
72785;SDS011;60902;53.876;10.674;2023-04-03T00:20:20;7.07;;;2.00;;
72785;SDS011;60902;53.876;10.674;2023-04-03T00:20:31;6.78;;;1.95;;
72785;SDS011;60902;53.876;10.674;2023-04-03T00:20:43;6.50;;;2.00;;
72785;SDS011;60902;53.876;10.674;2023-04-03T00:20:55;7.25;;;1.88;;
72785;SDS011;60902;53.876;10.674;2023-04-03T00:21:07;7.30;;;2.10;;
72785;SDS011;60902;53.876;10.674;2023-04-03T00:21:20;6.20;;;2.10;;
72785;SDS011;60902;53.876;10.674;2023-04-03T00:21:31;6.40;;;2.35;;
72785;SDS011;60902;53.876;10.674;2023-04-03T00:21:42;6.05;;;2.00;;
72785;SDS011;60902;53.876;10.674;2023-04-03T00:21:53;6.00;;;2.00;;
72785;SDS011;60902;53.876;10.674;2023-04-03T00:22:04;5.43;;;1.70;;
72785;SDS011;60902;53.876;10.674;2023-04-03T00:22:16;5.88;;;1.90;;
72785;SDS011;60902;53.876;10.674;2023-04-03T00:22:27;6.28;;;1.80;;
72785;SDS011;60902;53.876;10.674;2023-04-03T00:22:38;6.40;;;1.85;;
72785;SDS011;60902;53.876;10.674;2023-04-03T00:22:50;5.93;;;1.98;;
72785;SDS011;60902;53.876;10.674;2023-04-03T00:23:01;6.28;;;2.10;;
72785;SDS011;60902;53.876;10.674;2023-04-03T00:23:12;6.15;;;2.10;;
72785;SDS011;60902;53.876;10.674;2023-04-03T00:23:25;6.63;;;2.15;;
72785;SDS011;60902;53.876;10.674;2023-04-03T00:23:36;6.57;;;2.13;;
72785;SDS011;60902;53.876;10.674;2023-04-03T00:23:47;6.10;;;2.22;;
72785;SDS011;60902;53.876;10.674;2023-04-03T00:23:58;6.85;;;2.30;;
72785;SDS011;60902;53.876;10.674;2023-04-03T00:24:09;7.05;;;2.33;;
72785;SDS011;60902;53.876;10.674;2023-04-03T00:24:21;6.85;;;2.08;;
72785;SDS011;60902;53.876;10.674;2023-04-03T00:24:32;6.13;;;2.00;;
72785;SDS011;60902;53.876;10.674;2023-04-03T00:24:44;6.03;;;2.05;;
72785;SDS011;60902;53.876;10.674;2023-04-03T00:24:55;5.90;;;2.00;;
72785;SDS011;60902;53.876;10.674;2023-04-03T00:25:06;5.97;;;2.13;;
72785;SDS011;60902;53.876;10.674;2023-04-03T00:25:18;6.25;;;2.00;;
72785;SDS011;60902;53.876;10.674;2023-04-03T00:25:29;6.20;;;1.98;;
72785;SDS011;60902;53.876;10.674;2023-04-03T00:25:40;5.93;;;1.73;;
72785;SDS011;60902;53.876;10.674;2023-04-03T00:25:51;5.82;;;1.75;;
72785;SDS011;60902;53.876;10.674;2023-04-03T00:26:03;6.35;;;1.92;;
72785;SDS011;60902;53.876;10.674;2023-04-03T00:26:15;6.30;;;2.03;;
72785;SDS011;60902;53.876;10.674;2023-04-03T00:26:26;6.50;;;2.15;;
72785;SDS011;60902;53.876;10.674;2023-04-03T00:26:37;6.35;;;1.83;;
72785;SDS011;60902;53.876;10.674;2023-04-03T00:26:49;6.85;;;2.03;;
72785;SDS011;60902;53.876;10.674;2023-04-03T00:27:00;7.10;;;2.00;;
72785;SDS011;60902;53.876;10.674;2023-04-03T00:27:13;6.45;;;2.05;;
72785;SDS011;60902;53.876;10.674;2023-04-03T00:27:23;5.65;;;1.88;;
72785;SDS011;60902;53.876;10.674;2023-04-03T00:27:36;5.28;;;1.83;;
72785;SDS011;60902;53.876;10.674;2023-04-03T00:27:47;6.30;;;2.13;;
72785;SDS011;60902;53.876;10.674;2023-04-03T00:27:58;7.20;;;2.30;;
72785;SDS011;60902;53.876;10.674;2023-04-03T00:28:09;7.57;;;2.40;;
72785;SDS011;60902;53.876;10.674;2023-04-03T00:28:21;6.63;;;2.00;;
72785;SDS011;60902;53.876;10.674;2023-04-03T00:28:36;6.40;;;2.20;;
72785;SDS011;60902;53.876;10.674;2023-04-03T00:28:47;6.05;;;2.08;;
72785;SDS011;60902;53.876;10.674;2023-04-03T00:28:58;5.68;;;1.80;;
72785;SDS011;60902;53.876;10.674;2023-04-03T00:29:09;7.15;;;2.10;;
72785;SDS011;60902;53.876;10.674;2023-04-03T00:29:20;7.53;;;2.15;;
72785;SDS011;60902;53.876;10.674;2023-04-03T00:29:31;7.75;;;2.25;;
72785;SDS011;60902;53.876;10.674;2023-04-03T00:29:42;6.57;;;2.20;;
72785;SDS011;60902;53.876;10.674;2023-04-03T00:29:53;6.15;;;2.17;;
72785;SDS011;60902;53.876;10.674;2023-04-03T00:30:06;6.35;;;2.25;;
72785;SDS011;60902;53.876;10.674;2023-04-03T00:30:19;7.80;;;2.30;;
72785;SDS011;60902;53.876;10.674;2023-04-03T00:30:31;7.85;;;2.22;;
72785;SDS011;60902;53.876;10.674;2023-04-03T00:30:43;6.10;;;1.90;;
72785;SDS011;60902;53.876;10.674;2023-04-03T00:30:54;6.10;;;1.95;;
72785;SDS011;60902;53.876;10.674;2023-04-03T00:31:05;6.38;;;2.08;;
72785;SDS011;60902;53.876;10.674;2023-04-03T00:31:16;6.68;;;2.45;;
72785;SDS011;60902;53.876;10.674;2023-04-03T00:31:27;6.75;;;2.38;;
72785;SDS011;60902;53.876;10.674;2023-04-03T00:31:41;6.38;;;2.40;;
72785;SDS011;60902;53.876;10.674;2023-04-03T00:31:52;5.45;;;2.28;;
72785;SDS011;60902;53.876;10.674;2023-04-03T00:32:03;6.32;;;2.40;;
72785;SDS011;60902;53.876;10.674;2023-04-03T00:32:16;6.97;;;2.33;;
72785;SDS011;60902;53.876;10.674;2023-04-03T00:32:27;6.32;;;2.10;;
72785;SDS011;60902;53.876;10.674;2023-04-03T00:32:38;6.28;;;2.00;;
72785;SDS011;60902;53.876;10.674;2023-04-03T00:32:49;5.90;;;2.00;;
72785;SDS011;60902;53.876;10.674;2023-04-03T00:33:02;6.90;;;2.15;;
72785;SDS011;60902;53.876;10.674;2023-04-03T00:33:14;7.13;;;2.17;;
72785;SDS011;60902;53.876;10.674;2023-04-03T00:33:25;7.05;;;2.13;;
72785;SDS011;60902;53.876;10.674;2023-04-03T00:33:36;7.18;;;2.17;;
72785;SDS011;60902;53.876;10.674;2023-04-03T00:33:48;6.95;;;2.08;;
72785;SDS011;60902;53.876;10.674;2023-04-03T00:33:59;7.10;;;2.20;;
72785;SDS011;60902;53.876;10.674;2023-04-03T00:34:11;6.32;;;2.30;;
72785;SDS011;60902;53.876;10.674;2023-04-03T00:34:22;5.53;;;2.10;;
72785;SDS011;60902;53.876;10.674;2023-04-03T00:34:33;5.95;;;2.03;;
72785;SDS011;60902;53.876;10.674;2023-04-03T00:34:45;6.32;;;1.90;;
72785;SDS011;60902;53.876;10.674;2023-04-03T00:34:56;6.10;;;1.88;;
72785;SDS011;60902;53.876;10.674;2023-04-03T00:35:08;5.60;;;1.77;;
72785;SDS011;60902;53.876;10.674;2023-04-03T00:35:19;5.72;;;1.98;;
72785;SDS011;60902;53.876;10.674;2023-04-03T00:35:32;5.38;;;2.03;;
72785;SDS011;60902;53.876;10.674;2023-04-03T00:35:46;5.40;;;2.03;;
72785;SDS011;60902;53.876;10.674;2023-04-03T00:35:57;5.75;;;1.95;;
72785;SDS011;60902;53.876;10.674;2023-04-03T00:36:10;7.78;;;2.10;;
72785;SDS011;60902;53.876;10.674;2023-04-03T00:36:22;7.63;;;2.25;;
72785;SDS011;60902;53.876;10.674;2023-04-03T00:36:33;7.13;;;2.13;;
72785;SDS011;60902;53.876;10.674;2023-04-03T00:36:44;6.07;;;2.03;;
72785;SDS011;60902;53.876;10.674;2023-04-03T00:36:55;5.72;;;1.80;;
72785;SDS011;60902;53.876;10.674;2023-04-03T00:37:07;6.38;;;1.85;;
72785;SDS011;60902;53.876;10.674;2023-04-03T00:37:18;6.20;;;1.90;;
72785;SDS011;60902;53.876;10.674;2023-04-03T00:37:32;7.30;;;2.00;;
72785;SDS011;60902;53.876;10.674;2023-04-03T00:37:45;7.38;;;2.10;;
72785;SDS011;60902;53.876;10.674;2023-04-03T00:37:58;6.65;;;2.10;;
72785;SDS011;60902;53.876;10.674;2023-04-03T00:38:09;6.57;;;2.17;;
72785;SDS011;60902;53.876;10.674;2023-04-03T00:38:20;6.22;;;2.25;;
72785;SDS011;60902;53.876;10.674;2023-04-03T00:38:31;6.07;;;2.13;;
72785;SDS011;60902;53.876;10.674;2023-04-03T00:38:42;6.85;;;2.30;;
72785;SDS011;60902;53.876;10.674;2023-04-03T00:38:54;7.03;;;2.17;;
72785;SDS011;60902;53.876;10.674;2023-04-03T00:39:05;7.32;;;2.20;;
72785;SDS011;60902;53.876;10.674;2023-04-03T00:39:16;6.10;;;1.92;;
72785;SDS011;60902;53.876;10.674;2023-04-03T00:39:27;6.33;;;2.07;;
72785;SDS011;60902;53.876;10.674;2023-04-03T00:39:38;6.78;;;2.15;;
72785;SDS011;60902;53.876;10.674;2023-04-03T00:39:49;6.68;;;2.05;;
72785;SDS011;60902;53.876;10.674;2023-04-03T00:40:01;6.43;;;1.90;;
72785;SDS011;60902;53.876;10.674;2023-04-03T00:40:14;7.15;;;1.90;;
72785;SDS011;60902;53.876;10.674;2023-04-03T00:40:26;7.82;;;2.03;;
72785;SDS011;60902;53.876;10.674;2023-04-03T00:40:39;7.03;;;2.30;;
72785;SDS011;60902;53.876;10.674;2023-04-03T00:40:54;7.57;;;2.20;;
72785;SDS011;60902;53.876;10.674;2023-04-03T00:41:06;7.45;;;2.22;;
72785;SDS011;60902;53.876;10.674;2023-04-03T00:41:18;6.40;;;2.20;;
72785;SDS011;60902;53.876;10.674;2023-04-03T00:41:30;6.72;;;2.05;;
72785;SDS011;60902;53.876;10.674;2023-04-03T00:41:42;8.35;;;2.05;;
72785;SDS011;60902;53.876;10.674;2023-04-03T00:41:54;8.68;;;2.10;;
72785;SDS011;60902;53.876;10.674;2023-04-03T00:42:05;6.40;;;2.03;;
72785;SDS011;60902;53.876;10.674;2023-04-03T00:42:16;5.70;;;2.00;;
72785;SDS011;60902;53.876;10.674;2023-04-03T00:42:27;5.38;;;2.10;;
72785;SDS011;60902;53.876;10.674;2023-04-03T00:42:39;6.63;;;2.17;;
72785;SDS011;60902;53.876;10.674;2023-04-03T00:42:51;7.32;;;2.28;;
72785;SDS011;60902;53.876;10.674;2023-04-03T00:43:09;7.60;;;2.10;;
72785;SDS011;60902;53.876;10.674;2023-04-03T00:43:24;6.43;;;1.92;;
72785;SDS011;60902;53.876;10.674;2023-04-03T00:43:36;7.10;;;2.00;;
72785;SDS011;60902;53.876;10.674;2023-04-03T00:43:47;6.40;;;2.10;;
72785;SDS011;60902;53.876;10.674;2023-04-03T00:43:58;5.93;;;2.38;;
72785;SDS011;60902;53.876;10.674;2023-04-03T00:44:18;5.53;;;2.43;;
72785;SDS011;60902;53.876;10.674;2023-04-03T00:45:23;7.03;;;2.40;;
72785;SDS011;60902;53.876;10.674;2023-04-03T00:45:41;7.38;;;2.50;;
72785;SDS011;60902;53.876;10.674;2023-04-03T00:45:54;5.95;;;2.13;;
72785;SDS011;60902;53.876;10.674;2023-04-03T00:46:07;6.00;;;2.20;;
72785;SDS011;60902;53.876;10.674;2023-04-03T00:46:18;6.95;;;2.30;;
72785;SDS011;60902;53.876;10.674;2023-04-03T00:46:29;6.35;;;2.30;;
72785;SDS011;60902;53.876;10.674;2023-04-03T00:46:42;5.97;;;2.00;;
72785;SDS011;60902;53.876;10.674;2023-04-03T00:46:53;5.63;;;1.90;;
72785;SDS011;60902;53.876;10.674;2023-04-03T00:47:04;6.22;;;1.98;;
72785;SDS011;60902;53.876;10.674;2023-04-03T00:47:17;6.32;;;1.98;;
72785;SDS011;60902;53.876;10.674;2023-04-03T00:47:29;6.70;;;1.80;;
72785;SDS011;60902;53.876;10.674;2023-04-03T00:47:41;6.20;;;1.92;;
72785;SDS011;60902;53.876;10.674;2023-04-03T00:47:54;6.72;;;2.17;;
72785;SDS011;60902;53.876;10.674;2023-04-03T00:48:06;7.13;;;2.20;;
72785;SDS011;60902;53.876;10.674;2023-04-03T00:48:20;8.05;;;2.17;;
72785;SDS011;60902;53.876;10.674;2023-04-03T00:48:36;7.65;;;2.22;;
72785;SDS011;60902;53.876;10.674;2023-04-03T00:48:50;6.32;;;2.25;;
72785;SDS011;60902;53.876;10.674;2023-04-03T00:49:01;6.13;;;2.10;;
72785;SDS011;60902;53.876;10.674;2023-04-03T00:49:12;6.45;;;2.33;;
72785;SDS011;60902;53.876;10.674;2023-04-03T00:49:23;7.07;;;2.55;;
72785;SDS011;60902;53.876;10.674;2023-04-03T00:49:34;6.90;;;2.57;;
72785;SDS011;60902;53.876;10.674;2023-04-03T00:49:46;6.65;;;2.17;;
72785;SDS011;60902;53.876;10.674;2023-04-03T00:49:57;5.50;;;1.90;;
72785;SDS011;60902;53.876;10.674;2023-04-03T00:50:08;5.93;;;2.10;;
72785;SDS011;60902;53.876;10.674;2023-04-03T00:50:20;6.13;;;2.20;;
72785;SDS011;60902;53.876;10.674;2023-04-03T00:50:31;6.97;;;2.55;;
72785;SDS011;60902;53.876;10.674;2023-04-03T00:50:50;7.15;;;2.60;;
72785;SDS011;60902;53.876;10.674;2023-04-03T00:51:02;7.22;;;2.42;;
72785;SDS011;60902;53.876;10.674;2023-04-03T00:51:15;7.75;;;2.30;;
72785;SDS011;60902;53.876;10.674;2023-04-03T00:51:29;7.78;;;2.38;;
72785;SDS011;60902;53.876;10.674;2023-04-03T00:51:42;6.90;;;2.20;;
72785;SDS011;60902;53.876;10.674;2023-04-03T00:51:53;6.18;;;2.10;;
72785;SDS011;60902;53.876;10.674;2023-04-03T00:52:05;5.90;;;2.13;;
72785;SDS011;60902;53.876;10.674;2023-04-03T00:52:21;7.05;;;2.47;;
72785;SDS011;60902;53.876;10.674;2023-04-03T00:52:33;7.20;;;2.40;;
72785;SDS011;60902;53.876;10.674;2023-04-03T00:52:45;6.50;;;2.20;;
72785;SDS011;60902;53.876;10.674;2023-04-03T00:52:59;7.10;;;2.53;;
72785;SDS011;60902;53.876;10.674;2023-04-03T00:53:11;8.07;;;2.63;;
72785;SDS011;60902;53.876;10.674;2023-04-03T00:53:25;7.18;;;2.40;;
72785;SDS011;60902;53.876;10.674;2023-04-03T00:53:41;6.75;;;2.25;;
72785;SDS011;60902;53.876;10.674;2023-04-03T00:53:58;7.28;;;2.42;;
72785;SDS011;60902;53.876;10.674;2023-04-03T00:54:11;6.85;;;2.55;;
72785;SDS011;60902;53.876;10.674;2023-04-03T00:54:23;6.45;;;2.22;;
72785;SDS011;60902;53.876;10.674;2023-04-03T00:54:35;7.28;;;2.28;;
72785;SDS011;60902;53.876;10.674;2023-04-03T00:54:47;7.22;;;2.28;;
72785;SDS011;60902;53.876;10.674;2023-04-03T00:55:01;6.93;;;2.10;;
72785;SDS011;60902;53.876;10.674;2023-04-03T00:55:16;5.90;;;1.90;;
72785;SDS011;60902;53.876;10.674;2023-04-03T00:55:28;5.88;;;2.00;;
72785;SDS011;60902;53.876;10.674;2023-04-03T00:55:39;6.15;;;1.98;;
72785;SDS011;60902;53.876;10.674;2023-04-03T00:55:53;6.35;;;2.00;;
72785;SDS011;60902;53.876;10.674;2023-04-03T00:56:08;6.10;;;1.90;;
72785;SDS011;60902;53.876;10.674;2023-04-03T00:56:23;6.60;;;1.92;;
72785;SDS011;60902;53.876;10.674;2023-04-03T00:56:37;7.47;;;2.28;;
72785;SDS011;60902;53.876;10.674;2023-04-03T00:56:49;7.07;;;2.20;;
72785;SDS011;60902;53.876;10.674;2023-04-03T00:57:02;6.35;;;2.20;;
72785;SDS011;60902;53.876;10.674;2023-04-03T00:57:15;5.97;;;2.10;;
72785;SDS011;60902;53.876;10.674;2023-04-03T00:57:28;6.07;;;2.00;;
72785;SDS011;60902;53.876;10.674;2023-04-03T00:57:41;6.22;;;2.00;;
72785;SDS011;60902;53.876;10.674;2023-04-03T00:57:53;6.68;;;2.40;;
72785;SDS011;60902;53.876;10.674;2023-04-03T00:58:06;7.78;;;2.53;;
72785;SDS011;60902;53.876;10.674;2023-04-03T00:58:18;7.05;;;2.55;;
72785;SDS011;60902;53.876;10.674;2023-04-03T00:58:31;5.60;;;2.10;;
72785;SDS011;60902;53.876;10.674;2023-04-03T00:58:48;6.18;;;2.05;;
72785;SDS011;60902;53.876;10.674;2023-04-03T00:59:03;7.22;;;2.30;;
72785;SDS011;60902;53.876;10.674;2023-04-03T00:59:17;6.82;;;2.20;;
72785;SDS011;60902;53.876;10.674;2023-04-03T00:59:33;6.05;;;2.10;;
72785;SDS011;60902;53.876;10.674;2023-04-03T00:59:50;6.75;;;2.25;;
72785;SDS011;60902;53.876;10.674;2023-04-03T01:00:05;6.50;;;2.08;;
72785;SDS011;60902;53.876;10.674;2023-04-03T01:00:20;6.40;;;2.10;;
72785;SDS011;60902;53.876;10.674;2023-04-03T01:00:33;6.55;;;2.15;;
72785;SDS011;60902;53.876;10.674;2023-04-03T01:00:50;6.13;;;2.03;;
72785;SDS011;60902;53.876;10.674;2023-04-03T01:01:08;7.20;;;2.25;;
72785;SDS011;60902;53.876;10.674;2023-04-03T01:01:24;8.68;;;2.42;;
72785;SDS011;60902;53.876;10.674;2023-04-03T01:01:37;8.63;;;2.65;;
72785;SDS011;60902;53.876;10.674;2023-04-03T01:01:53;7.10;;;2.60;;
72785;SDS011;60902;53.876;10.674;2023-04-03T01:02:05;6.05;;;2.17;;
72785;SDS011;60902;53.876;10.674;2023-04-03T01:02:16;5.57;;;2.00;;
72785;SDS011;60902;53.876;10.674;2023-04-03T01:02:27;6.30;;;2.20;;
72785;SDS011;60902;53.876;10.674;2023-04-03T01:02:39;6.35;;;2.30;;
72785;SDS011;60902;53.876;10.674;2023-04-03T01:02:52;6.38;;;2.40;;
72785;SDS011;60902;53.876;10.674;2023-04-03T01:03:03;6.65;;;2.22;;
72785;SDS011;60902;53.876;10.674;2023-04-03T01:03:14;7.38;;;2.25;;
72785;SDS011;60902;53.876;10.674;2023-04-03T01:03:28;6.78;;;2.20;;
72785;SDS011;60902;53.876;10.674;2023-04-03T01:03:41;6.18;;;2.03;;
72785;SDS011;60902;53.876;10.674;2023-04-03T01:03:52;6.35;;;2.05;;
72785;SDS011;60902;53.876;10.674;2023-04-03T01:04:39;6.13;;;2.10;;
72785;SDS011;60902;53.876;10.674;2023-04-03T01:04:52;7.20;;;2.80;;
72785;SDS011;60902;53.876;10.674;2023-04-03T01:05:03;7.75;;;2.60;;
72785;SDS011;60902;53.876;10.674;2023-04-03T01:05:16;7.05;;;2.25;;
72785;SDS011;60902;53.876;10.674;2023-04-03T01:05:29;6.20;;;2.15;;
72785;SDS011;60902;53.876;10.674;2023-04-03T01:05:42;6.07;;;2.28;;
72785;SDS011;60902;53.876;10.674;2023-04-03T01:05:53;6.40;;;2.13;;
72785;SDS011;60902;53.876;10.674;2023-04-03T01:06:04;6.72;;;2.20;;
72785;SDS011;60902;53.876;10.674;2023-04-03T01:06:16;6.75;;;2.10;;
72785;SDS011;60902;53.876;10.674;2023-04-03T01:06:31;6.78;;;2.00;;
72785;SDS011;60902;53.876;10.674;2023-04-03T01:06:45;6.30;;;2.33;;
72785;SDS011;60902;53.876;10.674;2023-04-03T01:06:56;6.75;;;2.40;;
72785;SDS011;60902;53.876;10.674;2023-04-03T01:07:12;6.93;;;2.15;;
72785;SDS011;60902;53.876;10.674;2023-04-03T01:07:26;6.47;;;2.15;;
72785;SDS011;60902;53.876;10.674;2023-04-03T01:07:41;6.60;;;2.15;;
72785;SDS011;60902;53.876;10.674;2023-04-03T01:07:52;6.65;;;2.38;;
72785;SDS011;60902;53.876;10.674;2023-04-03T01:08:04;6.85;;;2.28;;
72785;SDS011;60902;53.876;10.674;2023-04-03T01:08:15;6.43;;;2.00;;
72785;SDS011;60902;53.876;10.674;2023-04-03T01:08:26;5.80;;;1.70;;
72785;SDS011;60902;53.876;10.674;2023-04-03T01:08:37;6.25;;;1.70;;
72785;SDS011;60902;53.876;10.674;2023-04-03T01:08:50;5.75;;;1.80;;
72785;SDS011;60902;53.876;10.674;2023-04-03T01:09:01;5.75;;;2.00;;
72785;SDS011;60902;53.876;10.674;2023-04-03T01:09:13;5.47;;;2.15;;
72785;SDS011;60902;53.876;10.674;2023-04-03T01:09:24;5.72;;;2.30;;
72785;SDS011;60902;53.876;10.674;2023-04-03T01:09:36;6.05;;;2.22;;
72785;SDS011;60902;53.876;10.674;2023-04-03T01:09:51;6.60;;;1.90;;
72785;SDS011;60902;53.876;10.674;2023-04-03T01:10:06;6.38;;;2.00;;
72785;SDS011;60902;53.876;10.674;2023-04-03T01:10:20;6.03;;;2.13;;
72785;SDS011;60902;53.876;10.674;2023-04-03T01:10:32;6.55;;;2.35;;
72785;SDS011;60902;53.876;10.674;2023-04-03T01:10:43;6.53;;;2.30;;
72785;SDS011;60902;53.876;10.674;2023-04-03T01:10:55;7.38;;;2.47;;
72785;SDS011;60902;53.876;10.674;2023-04-03T01:11:05;6.80;;;2.22;;
72785;SDS011;60902;53.876;10.674;2023-04-03T01:11:16;7.05;;;2.28;;
72785;SDS011;60902;53.876;10.674;2023-04-03T01:11:28;6.70;;;2.30;;
72785;SDS011;60902;53.876;10.674;2023-04-03T01:11:40;6.40;;;2.20;;
72785;SDS011;60902;53.876;10.674;2023-04-03T01:11:52;5.70;;;2.00;;
72785;SDS011;60902;53.876;10.674;2023-04-03T01:12:15;5.78;;;1.90;;
72785;SDS011;60902;53.876;10.674;2023-04-03T01:12:28;5.97;;;2.00;;
72785;SDS011;60902;53.876;10.674;2023-04-03T01:12:41;6.10;;;2.00;;
72785;SDS011;60902;53.876;10.674;2023-04-03T01:12:55;5.72;;;1.95;;
72785;SDS011;60902;53.876;10.674;2023-04-03T01:13:17;5.88;;;2.10;;
72785;SDS011;60902;53.876;10.674;2023-04-03T01:13:32;6.35;;;2.10;;
72785;SDS011;60902;53.876;10.674;2023-04-03T01:13:45;6.93;;;2.20;;